Time;durP1;ratioP1;P1;durP2;ratioP2;P2;SDS_P1;SDS_P2;PMS_P1;PMS_P2;Temp;Humidity;BMP_temperature;BMP_pressure;BME280_temperature;BME280_humidity;BME280_pressure;Samples;Min_cycle;Max_cycle;Signal;HPM_P1;HPM_P2
2021/08/17 00:00:29;;;;;;;9.30;6.70;;;;;;;19.07;81.82;99451.14;92995;1206;81799;-65
2021/08/17 00:02:43;;;;;;;9.80;6.40;;;;;;;19.09;81.85;99451.74;92984;1206;98784;-66
2021/08/17 00:04:51;;;;;;;7.50;6.70;;;;;;;19.13;81.81;99446.67;92995;1206;87974;-65
2021/08/17 00:06:58;;;;;;;9.10;6.70;;;;;;;19.13;81.82;99446.17;92954;1206;95053;-65
2021/08/17 00:09:09;;;;;;;7.80;7.00;;;;;;;19.10;81.85;99440.80;92930;1206;81060;-65
2021/08/17 00:11:17;;;;;;;10.00;6.90;;;;;;;19.11;81.91;99436.64;92923;1200;80447;-65
2021/08/17 00:13:24;;;;;;;8.00;6.70;;;;;;;19.13;81.94;99442.30;92995;1206;97348;-65
2021/08/17 00:15:34;;;;;;;9.80;7.50;;;;;;;19.15;81.93;99444.88;92982;1206;87911;-65
2021/08/17 00:17:42;;;;;;;9.30;7.20;;;;;;;19.16;82.02;99447.45;92991;1206;94348;-65
2021/08/17 00:19:49;;;;;;;10.20;7.30;;;;;;;19.17;81.98;99452.15;92983;1205;80447;-65
2021/08/17 00:21:57;;;;;;;8.70;6.80;;;;;;;19.16;82.01;99456.31;93009;1215;82017;-65
2021/08/17 00:24:05;;;;;;;7.60;6.70;;;;;;;19.21;81.88;99460.34;92994;1206;97986;-63
2021/08/17 00:26:16;;;;;;;9.30;7.00;;;;;;;19.24;81.99;99464.18;92996;1206;87679;-63
2021/08/17 00:28:23;;;;;;;9.20;7.00;;;;;;;19.25;82.05;99464.35;92967;1206;94599;-65
2021/08/17 00:30:31;;;;;;;8.40;6.40;;;;;;;19.25;82.05;99462.10;92967;1206;80479;-65
2021/08/17 00:32:39;;;;;;;7.70;6.90;;;;;;;19.29;82.05;99453.02;92960;1206;80383;-66
2021/08/17 00:34:48;;;;;;;7.30;6.30;;;;;;;19.29;82.09;99452.30;92979;1206;99004;-63
2021/08/17 00:36:59;;;;;;;10.80;7.30;;;;;;;19.33;81.97;99449.27;92972;1206;88335;-63
2021/08/17 00:39:07;;;;;;;7.60;6.30;;;;;;;19.34;81.95;99454.19;92963;1206;93444;-63
2021/08/17 00:41:15;;;;;;;11.20;7.10;;;;;;;19.36;81.94;99462.80;92962;1206;80886;-63
2021/08/17 00:43:23;;;;;;;7.70;6.90;;;;;;;19.39;82.06;99461.31;93011;1206;81370;-63
2021/08/17 00:45:32;;;;;;;8.70;6.90;;;;;;;19.38;81.89;99465.08;92949;1206;99932;-63
2021/08/17 00:47:42;;;;;;;9.50;7.00;;;;;;;19.35;81.99;99461.38;92961;1206;87277;-64
2021/08/17 00:49:50;;;;;;;8.80;6.80;;;;;;;19.40;82.00;99459.01;92985;1206;94511;-65
2021/08/17 00:52:00;;;;;;;8.00;7.10;;;;;;;19.43;81.88;99452.54;92984;1206;79933;-65
2021/08/17 00:54:08;;;;;;;9.40;6.80;;;;;;;19.43;81.92;99454.31;92969;1206;80536;-65
2021/08/17 00:56:17;;;;;;;12.20;7.00;;;;;;;19.45;81.94;99460.94;92914;1206;100372;-65
2021/08/17 00:58:25;;;;;;;8.50;7.00;;;;;;;19.43;81.84;99464.05;92985;1206;88080;-63
2021/08/17 01:00:34;;;;;;;11.40;7.20;;;;;;;19.40;81.92;99474.72;92980;1206;94376;-63
2021/08/17 01:02:42;;;;;;;10.40;6.90;;;;;;;19.40;81.92;99480.10;93022;1206;81026;-63
2021/08/17 01:04:49;;;;;;;8.10;6.60;;;;;;;19.37;82.10;99479.30;93009;1206;81900;-63
2021/08/17 01:06:57;;;;;;;10.80;7.50;;;;;;;19.40;81.88;99484.69;92970;1206;98882;-63
2021/08/17 01:09:05;;;;;;;12.50;8.20;;;;;;;19.40;82.00;99490.29;92967;1206;86517;-62
2021/08/17 01:11:16;;;;;;;9.60;6.20;;;;;;;19.35;81.95;99491.89;92974;1206;92747;-63
2021/08/17 01:13:28;;;;;;;8.60;6.50;;;;;;;19.34;81.87;99503.00;92962;1206;81209;-63
2021/08/17 01:15:36;;;;;;;9.20;6.60;;;;;;;19.32;81.77;99510.16;92996;1206;81634;-59
2021/08/17 01:17:44;;;;;;;8.20;6.20;;;;;;;19.30;81.60;99509.06;92945;1206;98828;-58
2021/08/17 01:19:54;;;;;;;9.40;6.20;;;;;;;19.25;81.87;99502.75;92971;1206;87637;-60
2021/08/17 01:22:03;;;;;;;8.60;6.90;;;;;;;19.27;81.84;99487.96;92997;1206;92795;-60
2021/08/17 01:24:12;;;;;;;9.70;6.80;;;;;;;19.21;81.81;99477.91;92995;1206;81226;-64
2021/08/17 01:26:22;;;;;;;8.30;6.40;;;;;;;19.15;81.80;99473.13;92976;1206;81240;-65
2021/08/17 01:28:30;;;;;;;9.00;6.30;;;;;;;19.13;81.87;99462.94;92955;1206;100534;-65
2021/08/17 01:30:38;;;;;;;9.90;6.90;;;;;;;19.13;81.70;99463.58;92972;1206;88374;-65
2021/08/17 01:32:48;;;;;;;7.50;6.60;;;;;;;19.13;81.86;99464.57;93007;1206;93767;-65
2021/08/17 01:34:58;;;;;;;10.40;6.70;;;;;;;19.08;81.91;99468.44;93010;1206;79344;-63
2021/08/17 01:37:06;;;;;;;9.50;6.20;;;;;;;19.03;81.90;99470.00;93007;1199;80179;-63
2021/08/17 01:39:14;;;;;;;7.00;6.30;;;;;;;18.99;81.98;99473.65;92962;1206;99820;-63
2021/08/17 01:41:22;;;;;;;9.90;6.00;;;;;;;19.00;81.98;99481.22;93025;1205;86698;-63
2021/08/17 01:43:32;;;;;;;10.20;6.50;;;;;;;18.98;82.18;99491.55;92964;1206;92991;-63
2021/08/17 01:45:40;;;;;;;8.80;6.40;;;;;;;18.99;82.28;99501.79;92933;1206;80377;-62
2021/08/17 01:47:48;;;;;;;9.10;6.10;;;;;;;19.03;82.25;99511.34;92998;1206;82372;-60
2021/08/17 01:49:56;;;;;;;9.30;6.50;;;;;;;19.03;82.22;99522.08;93013;1206;99515;-61
2021/08/17 01:52:04;;;;;;;9.80;6.20;;;;;;;19.04;82.35;99526.89;93005;1206;87575;-61
2021/08/17 01:54:16;;;;;;;12.10;7.30;;;;;;;19.02;82.25;99531.92;92987;1206;92780;-58
2021/08/17 01:56:24;;;;;;;9.00;7.10;;;;;;;18.96;82.25;99539.34;92982;1206;80416;-58
2021/08/17 01:58:31;;;;;;;12.50;6.80;;;;;;;18.94;82.44;99542.27;92985;1206;80390;-62
2021/08/17 02:00:39;;;;;;;6.90;6.20;;;;;;;18.95;82.49;99546.18;92982;1206;101952;-61
2021/08/17 02:02:46;;;;;;;8.40;6.60;;;;;;;18.94;82.23;99544.76;93007;1206;85659;-62
2021/08/17 02:04:54;;;;;;;10.00;7.60;;;;;;;18.94;82.32;99544.84;92954;1206;94280;-61
2021/08/17 02:07:01;;;;;;;7.20;6.50;;;;;;;18.93;82.30;99536.30;92964;1206;82259;-62
2021/08/17 02:09:12;;;;;;;8.90;6.20;;;;;;;18.91;82.26;99528.46;92987;1206;82333;-61
2021/08/17 02:11:19;;;;;;;9.10;6.50;;;;;;;18.89;82.21;99523.48;92961;1206;100307;-62
2021/08/17 02:13:29;;;;;;;10.90;6.90;;;;;;;18.91;82.21;99521.35;92912;1206;87806;-62
2021/08/17 02:15:36;;;;;;;7.70;6.60;;;;;;;18.91;82.12;99525.78;92971;1206;92941;-61
2021/08/17 02:17:44;;;;;;;8.40;6.50;;;;;;;18.90;82.20;99529.71;92966;1206;82027;-61
2021/08/17 02:19:51;;;;;;;10.80;6.30;;;;;;;18.85;82.23;99527.67;92981;1206;82590;-59
2021/08/17 02:21:59;;;;;;;10.00;6.10;;;;;;;18.78;82.24;99531.72;92953;1205;99129;-59
2021/08/17 02:24:08;;;;;;;7.60;6.60;;;;;;;18.73;82.19;99536.06;92987;1206;87464;-61
2021/08/17 02:26:15;;;;;;;8.20;6.90;;;;;;;18.66;82.21;99535.02;92971;1206;93855;-61
2021/08/17 02:28:23;;;;;;;10.30;6.80;;;;;;;18.66;82.27;99531.64;92970;1206;81881;-61
2021/08/17 02:30:31;;;;;;;10.50;6.40;;;;;;;18.67;82.18;99528.15;93010;1206;80977;-61
2021/08/17 02:32:39;;;;;;;8.50;6.20;;;;;;;18.67;82.02;99525.41;92954;1206;99709;-61
2021/08/17 02:34:49;;;;;;;10.50;6.20;;;;;;;18.66;82.05;99517.52;92990;1206;87837;-62
2021/08/17 02:36:57;;;;;;;8.80;6.30;;;;;;;18.64;82.06;99519.33;92997;1206;93160;-62
2021/08/17 02:39:07;;;;;;;10.20;6.40;;;;;;;18.63;82.03;99512.68;92951;1206;79490;-60
2021/08/17 02:41:18;;;;;;;10.20;6.50;;;;;;;18.59;81.97;99515.55;92998;1206;82201;-60
2021/08/17 02:43:25;;;;;;;8.80;6.00;;;;;;;18.51;82.13;99518.17;92991;1206;100041;-60
2021/08/17 02:45:33;;;;;;;10.10;5.50;;;;;;;18.51;82.03;99526.94;92995;1206;87532;-60
2021/08/17 02:47:41;;;;;;;10.20;6.50;;;;;;;18.45;82.12;99531.89;92962;1206;92191;-60
2021/08/17 02:49:48;;;;;;;11.60;6.50;;;;;;;18.42;82.11;99543.89;92973;1206;80600;-62
2021/08/17 02:51:56;;;;;;;13.70;7.10;;;;;;;18.41;82.12;99543.29;92919;1206;81092;-62
2021/08/17 02:54:03;;;;;;;11.00;6.70;;;;;;;18.40;82.13;99548.81;93016;1206;100163;-62
2021/08/17 02:56:11;;;;;;;10.80;6.00;;;;;;;18.37;82.11;99555.40;93022;1206;87906;-62
2021/08/17 02:58:18;;;;;;;8.40;6.30;;;;;;;18.36;82.11;99561.41;92959;1206;94037;-62
2021/08/17 03:00:26;;;;;;;9.70;6.00;;;;;;;18.31;82.17;99562.23;92971;1206;78496;-62
2021/08/17 03:02:34;;;;;;;10.90;6.60;;;;;;;18.28;82.16;99566.16;92991;1206;82053;-62
2021/08/17 03:04:42;;;;;;;10.70;6.70;;;;;;;18.21;82.13;99568.98;92978;1206;99915;-61
2021/08/17 03:06:49;;;;;;;8.20;5.70;;;;;;;18.20;82.08;99569.31;93024;1206;87505;-62
2021/08/17 03:09:00;;;;;;;9.20;5.90;;;;;;;18.18;82.03;99571.91;93024;1206;94251;-63
2021/08/17 03:11:07;;;;;;;9.50;6.50;;;;;;;18.09;82.18;99574.39;92979;1205;78481;-63
2021/08/17 03:13:15;;;;;;;10.40;6.00;;;;;;;18.04;82.27;99572.90;93004;1206;80936;-65
2021/08/17 03:15:24;;;;;;;7.00;5.30;;;;;;;18.02;82.18;99573.83;92970;1206;99098;-65
2021/08/17 03:17:31;;;;;;;7.80;6.40;;;;;;;17.96;82.13;99577.20;93005;1206;86614;-66
2021/08/17 03:19:39;;;;;;;7.50;6.60;;;;;;;17.94;82.16;99577.29;92984;1206;94056;-65
2021/08/17 03:21:46;;;;;;;7.60;5.80;;;;;;;17.94;82.30;99574.98;93004;1206;80407;-65
2021/08/17 03:23:54;;;;;;;8.60;6.40;;;;;;;17.88;82.24;99575.15;93032;1199;80688;-65
2021/08/17 03:26:02;;;;;;;9.00;6.00;;;;;;;17.88;82.27;99570.92;92918;1206;98214;-65
2021/08/17 03:28:10;;;;;;;7.30;5.60;;;;;;;17.88;82.31;99569.02;93001;1206;86835;-65
2021/08/17 03:30:21;;;;;;;10.10;6.00;;;;;;;17.87;82.35;99568.26;92991;1206;94049;-66
2021/08/17 03:32:28;;;;;;;9.70;5.90;;;;;;;17.85;82.34;99563.30;93001;1206;78309;-65
2021/08/17 03:34:36;;;;;;;6.90;5.80;;;;;;;17.84;82.26;99559.52;92993;1206;81063;-63
2021/08/17 03:36:44;;;;;;;8.10;5.50;;;;;;;17.81;82.32;99556.70;92985;1206;100661;-63
2021/08/17 03:38:51;;;;;;;8.90;6.20;;;;;;;17.80;82.28;99559.05;93009;1205;87095;-65
2021/08/17 03:40:59;;;;;;;11.20;5.80;;;;;;;17.82;82.22;99555.95;92971;1206;93713;-65
2021/08/17 03:43:07;;;;;;;8.00;6.20;;;;;;;17.81;82.17;99552.77;92955;1205;79521;-63
2021/08/17 03:45:19;;;;;;;8.80;6.20;;;;;;;17.78;82.28;99552.20;92986;1206;80921;-63
2021/08/17 03:47:27;;;;;;;7.40;5.90;;;;;;;17.74;82.33;99551.27;93000;1206;98148;-63
2021/08/17 03:49:35;;;;;;;7.70;5.70;;;;;;;17.73;82.27;99549.09;92994;1206;88360;-63
2021/08/17 03:51:42;;;;;;;7.90;5.30;;;;;;;17.68;82.18;99550.83;92989;1206;94087;-63
2021/08/17 03:53:50;;;;;;;11.50;6.30;;;;;;;17.60;82.15;99547.45;93010;1206;78586;-63
2021/08/17 03:55:57;;;;;;;8.30;5.60;;;;;;;17.54;82.25;99542.84;92902;1206;81411;-63
2021/08/17 03:58:05;;;;;;;7.80;5.80;;;;;;;17.48;82.40;99549.31;93007;1206;99008;-64
2021/08/17 04:00:18;;;;;;;8.50;5.40;;;;;;;17.46;82.43;99552.73;92966;1206;87463;-64
2021/08/17 04:02:25;;;;;;;9.00;5.10;;;;;;;17.47;82.57;99561.46;92984;1206;94663;-63
2021/08/17 04:04:33;;;;;;;7.70;6.20;;;;;;;17.48;82.57;99564.10;92968;1206;79447;-63
2021/08/17 04:06:41;;;;;;;8.00;5.60;;;;;;;17.51;82.64;99558.09;92989;1206;81156;-64
2021/08/17 04:08:48;;;;;;;8.70;6.00;;;;;;;17.54;82.57;99553.06;92970;1206;99965;-63
2021/08/17 04:10:56;;;;;;;8.30;5.80;;;;;;;17.56;82.57;99554.65;92993;1206;88200;-63
2021/08/17 04:13:04;;;;;;;9.80;6.50;;;;;;;17.52;82.51;99558.27;92851;1209;94083;-63
2021/08/17 04:15:14;;;;;;;7.20;5.40;;;;;;;17.51;82.54;99557.30;92961;1206;79680;-63
2021/08/17 04:17:22;;;;;;;7.20;5.30;;;;;;;17.52;82.51;99553.83;93004;1206;80451;-63
2021/08/17 04:19:29;;;;;;;6.70;5.90;;;;;;;17.46;82.61;99557.09;93001;1206;98334;-63
2021/08/17 04:21:40;;;;;;;7.60;5.80;;;;;;;17.46;82.78;99565.84;92903;1206;86548;-64
2021/08/17 04:23:48;;;;;;;8.10;5.40;;;;;;;17.52;82.69;99578.58;92988;1206;92585;-63
2021/08/17 04:25:56;;;;;;;7.60;5.20;;;;;;;17.53;82.65;99581.86;92983;1206;81774;-63
2021/08/17 04:28:03;;;;;;;6.50;5.10;;;;;;;17.54;82.69;99589.11;92944;1199;81003;-64
2021/08/17 04:30:18;;;;;;;7.90;5.20;;;;;;;17.58;82.73;99597.69;93011;1206;98556;-65
2021/08/17 04:32:28;;;;;;;6.80;5.10;;;;;;;17.57;82.73;99611.05;93022;1206;87563;-65
2021/08/17 04:34:36;;;;;;;9.60;4.90;;;;;;;17.53;82.85;99622.03;92959;1206;92886;-64
2021/08/17 04:36:44;;;;;;;6.00;4.60;;;;;;;17.48;82.65;99624.89;92846;1207;78546;-63
2021/08/17 04:38:51;;;;;;;5.00;4.40;;;;;;;17.48;82.73;99628.39;93039;1206;80737;-66
2021/08/17 04:40:59;;;;;;;7.40;5.10;;;;;;;17.48;82.65;99630.30;92988;1206;100413;-65
2021/08/17 04:43:07;;;;;;;6.30;5.20;;;;;;;17.52;82.63;99637.08;92981;1206;87377;-64
2021/08/17 04:45:15;;;;;;;6.50;5.60;;;;;;;17.58;82.55;99641.33;92933;1206;92834;-64
2021/08/17 04:47:23;;;;;;;6.70;5.70;;;;;;;17.64;82.50;99644.67;92953;1206;80814;-63
2021/08/17 04:49:33;;;;;;;7.70;5.60;;;;;;;17.63;82.59;99646.64;93003;1206;81919;-65
2021/08/17 04:51:41;;;;;;;7.20;5.70;;;;;;;17.63;82.66;99644.13;92975;1206;99244;-65
2021/08/17 04:53:49;;;;;;;7.40;5.50;;;;;;;17.59;82.67;99648.11;92992;1206;86410;-62
2021/08/17 04:55:57;;;;;;;6.80;5.20;;;;;;;17.58;82.62;99645.31;92969;1206;93790;-63
2021/08/17 04:58:05;;;;;;;6.00;4.90;;;;;;;17.60;82.52;99644.70;92961;1206;79412;-63
2021/08/17 05:00:17;;;;;;;7.40;5.20;;;;;;;17.64;82.31;99648.67;92918;1206;81850;-62
2021/08/17 05:02:25;;;;;;;6.40;4.50;;;;;;;17.68;82.31;99654.58;93002;1206;99887;-63
2021/08/17 05:04:32;;;;;;;6.80;4.80;;;;;;;17.63;82.31;99657.52;92985;1206;87716;-63
2021/08/17 05:06:40;;;;;;;8.40;5.60;;;;;;;17.58;82.33;99658.33;92950;1206;94324;-62
2021/08/17 05:08:47;;;;;;;7.60;4.70;;;;;;;17.56;82.33;99663.48;92983;1206;80945;-62
2021/08/17 05:10:58;;;;;;;6.70;5.30;;;;;;;17.53;82.22;99668.73;93019;1206;82097;-62
2021/08/17 05:13:06;;;;;;;7.80;4.70;;;;;;;17.50;82.36;99670.80;92994;1206;100070;-63
2021/08/17 05:15:15;;;;;;;6.80;4.60;;;;;;;17.47;82.50;99674.46;92966;1206;90101;-63
2021/08/17 05:17:26;;;;;;;5.40;4.50;;;;;;;17.45;82.41;99682.58;92990;1205;95219;-63
2021/08/17 05:19:33;;;;;;;5.00;4.20;;;;;;;17.43;82.32;99691.95;92977;1206;78495;-63
2021/08/17 05:21:44;;;;;;;5.60;4.10;;;;;;;17.37;82.28;99692.79;93001;1206;82022;-63
2021/08/17 05:23:52;;;;;;;5.80;3.90;;;;;;;17.33;82.09;99699.21;92994;1206;99835;-65
2021/08/17 05:25:59;;;;;;;4.80;3.70;;;;;;;17.25;82.15;99704.16;92999;1206;88079;-65
2021/08/17 05:28:08;;;;;;;6.40;3.90;;;;;;;17.22;82.29;99706.86;92994;1206;93978;-63
2021/08/17 05:30:17;;;;;;;5.50;3.40;;;;;;;17.14;82.09;99708.41;92997;1206;80511;-62
2021/08/17 05:32:26;;;;;;;6.50;3.70;;;;;;;17.11;82.14;99710.67;93001;1206;81963;-62
2021/08/17 05:34:36;;;;;;;5.20;4.00;;;;;;;17.07;82.04;99712.89;93011;1206;98656;-65
2021/08/17 05:36:44;;;;;;;6.80;4.10;;;;;;;17.00;82.16;99717.77;93023;1206;87102;-64
2021/08/17 05:38:51;;;;;;;5.70;4.60;;;;;;;16.98;82.01;99724.90;92973;1206;94695;-62
2021/08/17 05:40:59;;;;;;;5.90;4.50;;;;;;;16.94;81.98;99726.39;92988;1206;81114;-62
2021/08/17 05:43:07;;;;;;;5.50;4.20;;;;;;;16.91;81.97;99728.34;93024;1205;80436;-63
2021/08/17 05:45:17;;;;;;;5.60;4.30;;;;;;;16.98;81.88;99728.58;92959;1206;98821;-63
2021/08/17 05:47:25;;;;;;;7.70;5.20;;;;;;;17.01;82.02;99723.88;92831;1209;86991;-63
2021/08/17 05:49:36;;;;;;;6.90;4.20;;;;;;;17.05;82.00;99721.38;92977;1206;92830;-65
2021/08/17 05:51:47;;;;;;;5.70;4.30;;;;;;;17.07;81.97;99721.19;92969;1206;81917;-65
2021/08/17 05:53:54;;;;;;;4.80;4.00;;;;;;;17.14;81.93;99720.98;92978;1206;81040;-63
2021/08/17 05:56:02;;;;;;;3.60;2.90;;;;;;;17.23;81.75;99730.13;92890;1207;99623;-63
2021/08/17 05:58:09;;;;;;;4.70;3.10;;;;;;;17.27;81.54;99737.62;93002;1206;88084;-65
2021/08/17 06:00:18;;;;;;;5.80;4.20;;;;;;;17.25;81.60;99742.51;92972;1206;92575;-66
2021/08/17 06:02:26;;;;;;;6.40;4.80;;;;;;;17.16;81.41;99743.73;93022;1206;77864;-66
2021/08/17 06:04:34;;;;;;;6.00;5.00;;;;;;;17.14;81.40;99745.76;92995;1206;81979;-64
2021/08/17 06:06:41;;;;;;;8.20;5.60;;;;;;;17.16;81.42;99746.77;92962;1206;97960;-63
2021/08/17 06:08:50;;;;;;;7.20;6.00;;;;;;;17.18;81.40;99755.05;92980;1206;87295;-65
2021/08/17 06:10:58;;;;;;;7.10;5.50;;;;;;;17.23;81.30;99756.71;92969;1206;94648;-66
2021/08/17 06:13:05;;;;;;;6.70;5.20;;;;;;;17.28;81.28;99752.92;92923;1206;80196;-65
2021/08/17 06:15:16;;;;;;;4.90;4.40;;;;;;;17.28;81.25;99751.95;92980;1206;81612;-66
2021/08/17 06:17:23;;;;;;;5.50;4.10;;;;;;;17.27;81.23;99753.58;92963;1206;97946;-65
2021/08/17 06:19:34;;;;;;;4.50;3.10;;;;;;;17.28;81.25;99758.83;92977;1206;88123;-66
2021/08/17 06:21:41;;;;;;;4.10;3.10;;;;;;;17.29;81.05;99765.56;92788;1208;92871;-66
2021/08/17 06:23:49;;;;;;;6.80;3.20;;;;;;;17.30;81.10;99766.44;92818;1209;79499;-63
2021/08/17 06:25:56;;;;;;;4.80;3.00;;;;;;;17.34;81.17;99763.79;93008;1206;80592;-63
2021/08/17 06:28:10;;;;;;;4.60;3.00;;;;;;;17.47;81.30;99767.87;92977;1206;97857;-65
2021/08/17 06:30:17;;;;;;;6.10;3.00;;;;;;;17.61;81.35;99766.54;92972;1206;86119;-66
2021/08/17 06:32:25;;;;;;;4.40;2.50;;;;;;;17.79;81.32;99771.02;92958;1206;93206;-66
2021/08/17 06:34:32;;;;;;;4.60;2.50;;;;;;;17.92;81.02;99769.23;92953;1206;80429;-66
2021/08/17 06:36:40;;;;;;;3.40;2.60;;;;;;;18.18;80.84;99762.23;92951;1206;81571;-68
2021/08/17 06:38:48;;;;;;;4.20;2.90;;;;;;;18.49;80.84;99759.89;93019;1206;99596;-63
2021/08/17 06:40:55;;;;;;;5.60;2.60;;;;;;;18.94;80.53;99755.85;92963;1206;87050;-63
2021/08/17 06:43:07;;;;;;;5.20;2.90;;;;;;;19.15;79.65;99752.19;92958;1206;95103;-64
2021/08/17 06:45:17;;;;;;;3.80;2.60;;;;;;;19.24;79.12;99755.57;92993;1206;79178;-63
2021/08/17 06:47:25;;;;;;;4.00;2.40;;;;;;;19.24;78.81;99761.54;93023;1206;80932;-63
2021/08/17 06:49:32;;;;;;;4.30;2.20;;;;;;;19.34;78.15;99768.30;93006;1205;100380;-66
2021/08/17 06:51:40;;;;;;;3.40;2.60;;;;;;;19.39;77.72;99772.05;93007;1206;86060;-66
2021/08/17 06:53:47;;;;;;;4.50;2.50;;;;;;;19.37;77.31;99775.75;92986;1206;94834;-64
2021/08/17 06:55:55;;;;;;;4.80;2.10;;;;;;;19.36;77.23;99779.66;92998;1206;78258;-64
2021/08/17 06:58:02;;;;;;;4.20;1.90;;;;;;;19.45;77.02;99785.02;92980;1206;80574;-63
2021/08/17 07:00:15;;;;;;;3.80;1.90;;;;;;;19.52;76.52;99774.28;92980;1206;99263;-62
2021/08/17 07:02:23;;;;;;;4.00;2.10;;;;;;;19.59;76.47;99771.09;92987;1206;88473;-63
2021/08/17 07:04:30;;;;;;;4.00;1.80;;;;;;;19.72;75.82;99779.13;92975;1206;93142;-65
2021/08/17 07:06:38;;;;;;;3.70;2.10;;;;;;;19.68;75.60;99787.93;92995;1204;78904;-65
2021/08/17 07:08:46;;;;;;;3.10;2.00;;;;;;;19.96;75.56;99779.67;92994;1206;81956;-65
2021/08/17 07:10:54;;;;;;;3.90;1.90;;;;;;;20.15;74.71;99783.50;92994;1206;99308;-65
2021/08/17 07:13:01;;;;;;;3.90;2.00;;;;;;;20.09;74.41;99788.29;93014;1206;86417;-64
2021/08/17 07:15:12;;;;;;;3.60;1.90;;;;;;;20.04;74.17;99790.13;92988;1206;92605;-62
2021/08/17 07:17:19;;;;;;;3.30;2.10;;;;;;;19.99;73.97;99790.88;92994;1206;78005;-62
2021/08/17 07:19:27;;;;;;;4.00;1.90;;;;;;;20.15;73.83;99791.66;92985;1206;80754;-62
2021/08/17 07:21:38;;;;;;;4.40;2.10;;;;;;;20.16;73.36;99797.83;92978;1206;98171;-63
2021/08/17 07:23:45;;;;;;;4.30;1.80;;;;;;;20.26;73.15;99798.66;93014;1206;87086;-66
2021/08/17 07:25:56;;;;;;;4.10;1.70;;;;;;;20.46;73.23;99801.06;92969;1206;92550;-65
2021/08/17 07:28:04;;;;;;;5.30;1.80;;;;;;;20.79;72.51;99800.30;92979;1206;78829;-64
2021/08/17 07:30:15;;;;;;;4.30;1.90;;;;;;;21.21;72.34;99792.42;92991;1206;81398;-75
2021/08/17 07:32:22;;;;;;;4.50;1.80;;;;;;;21.58;71.62;99785.67;93038;1206;98608;-69
2021/08/17 07:34:33;;;;;;;3.60;1.70;;;;;;;21.93;71.06;99791.04;93056;1206;87110;-70
2021/08/17 07:36:40;;;;;;;4.80;1.40;;;;;;;22.16;69.77;99798.09;93011;1206;94560;-70
2021/08/17 07:38:48;;;;;;;4.20;2.10;;;;;;;22.28;69.32;99796.95;93011;1206;79505;-69
2021/08/17 07:40:56;;;;;;;3.80;2.10;;;;;;;22.08;68.85;99795.91;92986;1206;81756;-70
2021/08/17 07:43:04;;;;;;;3.60;1.50;;;;;;;21.69;68.75;99796.61;92962;1206;98263;-70
2021/08/17 07:45:16;;;;;;;3.90;1.50;;;;;;;21.45;68.52;99800.36;92971;1206;86378;-68
2021/08/17 07:47:24;;;;;;;5.60;1.80;;;;;;;21.54;68.97;99811.19;92977;1206;92902;-69
2021/08/17 07:49:31;;;;;;;4.80;2.10;;;;;;;21.74;68.58;99807.22;93032;1206;79628;-69
2021/08/17 07:51:39;;;;;;;3.80;1.60;;;;;;;21.72;67.79;99803.09;93012;1206;82199;-69
2021/08/17 07:53:47;;;;;;;3.70;1.60;;;;;;;21.70;67.54;99800.46;92984;1206;98994;-68
2021/08/17 07:55:57;;;;;;;4.50;2.40;;;;;;;21.92;67.39;99799.35;92993;1206;87742;-68
2021/08/17 07:58:05;;;;;;;7.50;2.60;;;;;;;21.97;66.66;99799.19;92941;1206;94768;-69
2021/08/17 08:00:16;;;;;;;4.30;1.90;;;;;;;21.83;66.40;99796.92;92954;1206;79938;-68
2021/08/17 08:02:26;;;;;;;5.60;1.80;;;;;;;21.86;65.84;99793.73;93015;1206;81352;-68
2021/08/17 08:04:35;;;;;;;4.90;1.70;;;;;;;21.98;66.21;99794.88;92974;1205;99419;-69
2021/08/17 08:06:43;;;;;;;4.60;1.70;;;;;;;22.53;66.38;99790.91;92993;1204;89247;-68
2021/08/17 08:08:50;;;;;;;4.20;1.70;;;;;;;23.00;65.18;99798.94;92996;1206;94143;-68
2021/08/17 08:10:58;;;;;;;3.90;1.80;;;;;;;23.00;64.69;99806.38;92977;1206;78927;-68
2021/08/17 08:13:06;;;;;;;4.30;1.60;;;;;;;23.00;64.57;99807.70;93013;1206;80987;-72
2021/08/17 08:15:15;;;;;;;4.00;2.10;;;;;;;22.83;64.12;99810.23;93007;1206;100848;-72
2021/08/17 08:17:22;;;;;;;5.20;2.00;;;;;;;22.48;63.47;99813.55;93018;1206;87151;-72
2021/08/17 08:19:30;;;;;;;5.30;1.90;;;;;;;22.03;63.52;99810.98;92984;1206;94077;-69
2021/08/17 08:21:40;;;;;;;4.50;2.10;;;;;;;21.63;63.75;99817.08;92991;1206;77486;-69
2021/08/17 08:23:48;;;;;;;3.60;2.00;;;;;;;21.28;63.57;99825.25;93017;1200;81581;-69
2021/08/17 08:25:55;;;;;;;4.20;1.80;;;;;;;20.93;63.95;99830.75;92985;1206;99230;-69
2021/08/17 08:28:03;;;;;;;6.50;2.10;;;;;;;20.60;64.25;99832.63;92969;1206;87520;-69
2021/08/17 08:30:14;;;;;;;5.20;2.00;;;;;;;20.41;64.45;99839.41;92990;1206;93469;-68
2021/08/17 08:32:22;;;;;;;4.60;2.00;;;;;;;20.12;64.40;99841.01;93010;1206;77944;-69
2021/08/17 08:34:30;;;;;;;6.10;2.00;;;;;;;19.81;65.20;99846.80;93014;1206;80482;-69
2021/08/17 08:36:40;;;;;;;4.10;2.50;;;;;;;19.74;65.20;99843.73;92996;1206;100864;-69
2021/08/17 08:38:48;;;;;;;5.20;2.80;;;;;;;19.69;65.14;99847.55;93007;1206;88048;-71
2021/08/17 08:40:56;;;;;;;3.70;2.00;;;;;;;19.47;65.14;99846.35;92993;1207;92838;-72
2021/08/17 08:43:03;;;;;;;5.00;2.00;;;;;;;19.23;65.48;99852.11;93004;1206;79641;-70
2021/08/17 08:45:12;;;;;;;4.10;1.90;;;;;;;19.08;65.89;99850.31;92996;1206;81909;-69
2021/08/17 08:47:21;;;;;;;4.50;2.30;;;;;;;19.06;66.23;99852.70;93032;1205;99331;-66
2021/08/17 08:49:29;;;;;;;4.80;1.80;;;;;;;19.10;66.48;99860.37;93014;1206;86936;-65
2021/08/17 08:51:37;;;;;;;5.80;2.50;;;;;;;19.14;66.91;99864.08;92987;1206;94048;-62
2021/08/17 08:53:45;;;;;;;6.00;2.20;;;;;;;19.28;66.69;99858.02;92999;1206;79313;-63
2021/08/17 08:55:53;;;;;;;5.80;2.10;;;;;;;19.35;67.25;99861.44;92995;1206;81943;-63
2021/08/17 08:58:03;;;;;;;4.80;2.40;;;;;;;19.36;67.09;99858.77;92986;1206;99915;-63
2021/08/17 09:00:14;;;;;;;5.00;2.60;;;;;;;19.37;67.51;99861.74;93011;1206;88575;-62
2021/08/17 09:02:30;;;;;;;5.10;2.40;;;;;;;19.34;67.08;99864.34;93035;1206;94430;-62
2021/08/17 09:04:39;;;;;;;5.00;2.30;;;;;;;19.37;66.74;99870.51;93013;1206;80871;-64
2021/08/17 09:06:54;;;;;;;5.40;2.60;;;;;;;19.48;66.70;99870.35;93017;1206;81647;-63
2021/08/17 09:09:13;;;;;;;5.50;3.00;;;;;;;19.52;66.50;99874.13;92981;1206;99114;-64
2021/08/17 09:11:27;;;;;;;6.40;2.20;;;;;;;19.67;66.02;99872.77;92998;1206;87698;-64
2021/08/17 09:13:40;;;;;;;4.30;2.00;;;;;;;19.76;65.94;99876.23;92933;1206;94620;-63
2021/08/17 09:15:51;;;;;;;4.50;2.40;;;;;;;19.82;66.01;99870.92;92972;1206;79233;-65
2021/08/17 09:18:05;;;;;;;6.00;2.50;;;;;;;19.84;65.88;99870.39;92988;1206;80200;-64
2021/08/17 09:20:32;;;;;;;6.10;2.70;;;;;;;19.79;65.57;99869.91;93015;1206;99881;-64
2021/08/17 09:22:41;;;;;;;4.90;2.80;;;;;;;20.35;66.42;99870.63;92988;1205;86798;-65
2021/08/17 09:24:51;;;;;;;7.10;3.30;;;;;;;21.02;65.39;99876.48;92957;1206;94439;-64
2021/08/17 09:27:02;;;;;;;6.00;2.50;;;;;;;21.18;64.67;99870.84;92985;1206;78718;-61
2021/08/17 09:29:09;;;;;;;5.00;3.10;;;;;;;21.27;64.50;99870.42;93026;1206;82579;-64
2021/08/17 09:31:35;;;;;;;5.50;3.00;;;;;;;21.34;64.44;99874.98;92982;1206;98823;-64
2021/08/17 09:33:44;;;;;;;5.60;3.30;;;;;;;21.31;63.94;99873.95;92974;1206;87057;-67
2021/08/17 09:36:00;;;;;;;5.10;3.10;;;;;;;21.28;64.00;99882.45;92956;1206;91917;-66
2021/08/17 09:38:12;;;;;;;7.40;3.00;;;;;;;21.12;63.59;99884.44;92981;1206;78363;-64
2021/08/17 09:40:28;;;;;;;5.30;3.20;;;;;;;20.76;63.78;99886.21;93005;1206;82891;-61
2021/08/17 09:42:36;;;;;;;5.90;2.90;;;;;;;20.55;63.50;99889.30;92980;1206;98708;-66
2021/08/17 09:44:46;;;;;;;6.00;3.10;;;;;;;20.30;63.15;99885.66;93024;1206;87811;-66
2021/08/17 09:46:55;;;;;;;3.90;2.80;;;;;;;20.05;63.74;99887.65;92994;1206;94188;-63
2021/08/17 09:49:21;;;;;;;4.60;2.80;;;;;;;19.94;63.86;99893.22;93015;1206;79865;-67
2021/08/17 09:51:36;;;;;;;7.70;3.20;;;;;;;19.74;64.11;99894.09;92823;1210;82048;-65
2021/08/17 09:53:44;;;;;;;5.40;2.80;;;;;;;19.58;64.09;99894.34;92966;1206;100300;-64
2021/08/17 09:55:55;;;;;;;3.40;2.60;;;;;;;19.50;63.75;99899.25;92974;1206;88358;-64
2021/08/17 09:58:19;;;;;;;6.60;2.80;;;;;;;19.48;63.88;99905.54;92992;1206;94844;-64
2021/08/17 10:00:26;;;;;;;6.80;2.20;;;;;;;19.37;63.66;99908.42;92988;1206;78219;-64
2021/08/17 10:02:37;;;;;;;4.90;2.40;;;;;;;19.26;63.94;99905.77;92942;1206;82151;-63
2021/08/17 10:04:51;;;;;;;7.00;2.80;;;;;;;19.21;64.45;99905.67;92942;1206;99466;-67